Etusivu
METAR-TAF:

METAR-TAF

Lentoasemat :

Bilbaon lentoasema

Bilbao, Espanja

Leveyspiiri: 43-18N, Pituuspiiri: 002-56W, korkeus merenpinnasta: 42 m

Tämänhetkinen sää

Tämä raportti tehtiin 26 minuuttia sitten, kello 05.30 UTC
Tuuli 2 kn eri suunnista
Lämpötila 13°C
Kosteus 82%
Ilmanpaine 1014 hPa
Näkyvyys 10 km tai enemmän
ei pilviä alle 1500 m:ssä eikä cumulonimbus-pilviä

METAR: LEBB 160530Z VRB02KT CAVOK 13/10 Q1014 NOSIG

Aika: 07:56 (05:56 UTC)

Sääennuste

Tämä raportti tehtiin 56 minuuttia sitten, kello 05.00 UTC
Ennuste voimassa 16. päivästä klo 06 UTC - 17. päivään klo 06 UTC
Tuuli 5 kn kaakosta
Näkyvyys 10 km tai enemmän
Hajonneita pilviä 6000 ft:n korkeudessa
Ajoittain
16. päivästä klo 11 UTC - 16. päivään klo 18 UTC
Tuuli 10 kn pohjoisesta

TAF: LEBB 160500Z 1606/1706 14005KT 9999 BKN060 TX26/1612Z TN11/1606Z TEMPO 1611/1618 35010KT

Säähavainnot ja -ennusteet yli 4000 lentoasemalta (METAR- ja TAF-raportit).

Käytössä olevat sääasemat on merkitty karttaan keltaisilla ja punaisilla pisteillä.

Aseta hiiri pisteen päälle nähdäksesi sääaseman nimen.

Klikkaa sitten nähdäksesi säähavainnot ja -ennusteet.

Kartan vaihtaminen: klikkaa mustalla rastilla varustettuja vihreitä pisteitä, niin voit zoomata sisään; viivalla varustettua vihreää pistettä, niin voit zoomata ulos tai vihreitä nuolia, niin pääset viereisille kartoille.


METAR-TAF: